createdAt,value
2018-11-26T00:03:04.845Z,14.50
2018-11-26T00:05:32.037Z,19.47
2018-11-26T00:07:59.192Z,14.50
2018-11-26T00:10:37.737Z,14.60
2018-11-26T00:13:05.209Z,15.23
2018-11-26T00:15:32.535Z,14.27
2018-11-26T00:17:59.729Z,16.20
2018-11-26T00:20:26.927Z,15.83
2018-11-26T00:22:54.133Z,13.57
2018-11-26T00:25:21.369Z,16.17
2018-11-26T00:27:48.596Z,15.57
2018-11-26T00:30:15.845Z,14.50
2018-11-26T00:32:43.067Z,14.77
2018-11-26T00:35:10.275Z,14.93
2018-11-26T00:37:37.418Z,14.40
2018-11-26T00:40:06.642Z,15.60
2018-11-26T00:42:33.829Z,14.90
2018-11-26T00:45:00.994Z,13.23
2018-11-26T00:47:28.174Z,14.77
2018-11-26T00:49:55.328Z,14.50
2018-11-26T00:52:22.546Z,13.83
2018-11-26T00:54:49.689Z,15.30
2018-11-26T00:57:16.893Z,14.20
2018-11-26T00:59:44.105Z,15.23
2018-11-26T01:02:13.933Z,14.90
2018-11-26T01:04:41.172Z,13.83
2018-11-26T01:07:08.441Z,14.00
2018-11-26T01:09:35.739Z,15.43
2018-11-26T01:12:02.946Z,14.27
2018-11-26T01:14:30.155Z,15.30
2018-11-26T01:16:57.383Z,14.27
2018-11-26T01:19:24.552Z,15.63
2018-11-26T01:21:51.725Z,15.00
2018-11-26T01:24:18.897Z,15.23
2018-11-26T01:26:46.065Z,17.43
2018-11-26T01:29:13.265Z,15.67
2018-11-26T01:31:40.464Z,14.77
2018-11-26T01:34:07.634Z,13.50
2018-11-26T01:36:34.808Z,14.73
2018-11-26T01:39:02.008Z,13.93
2018-11-26T01:41:29.166Z,14.73
2018-11-26T01:43:56.364Z,13.93
2018-11-26T01:46:23.581Z,15.30
2018-11-26T01:48:51.194Z,13.07
2018-11-26T01:51:18.368Z,12.40
2018-11-26T01:53:45.542Z,12.93
2018-11-26T01:56:12.882Z,15.33
2018-11-26T01:58:40.031Z,16.03
2018-11-26T02:01:07.253Z,13.23
2018-11-26T02:03:34.472Z,13.27
2018-11-26T02:06:01.740Z,14.70
2018-11-26T02:08:28.932Z,12.77
2018-11-26T02:10:56.079Z,15.50
2018-11-26T02:13:23.243Z,13.30
2018-11-26T02:15:50.510Z,12.93
2018-11-26T02:18:17.701Z,14.20
2018-11-26T02:20:44.848Z,13.87
2018-11-26T02:23:11.993Z,15.50
2018-11-26T02:25:39.215Z,14.17
2018-11-26T02:28:06.493Z,13.87
2018-11-26T02:30:33.708Z,16.20
2018-11-26T02:33:00.885Z,14.50
2018-11-26T02:35:28.084Z,14.17
2018-11-26T02:37:55.293Z,14.77
2018-11-26T02:40:26.656Z,14.93
2018-11-26T02:42:53.891Z,13.87
2018-11-26T02:45:21.145Z,16.00
2018-11-26T02:47:48.271Z,13.90
2018-11-26T02:50:15.464Z,16.10
2018-11-26T02:52:42.643Z,15.80
2018-11-26T02:55:09.877Z,15.43
2018-11-26T02:57:37.074Z,15.53
2018-11-26T03:00:08.288Z,14.47
2018-11-26T03:02:35.432Z,15.67
2018-11-26T03:05:03.357Z,14.17
2018-11-26T03:07:30.593Z,14.07
2018-11-26T03:09:57.741Z,15.30
2018-11-26T03:12:24.943Z,16.40
2018-11-26T03:14:52.093Z,15.53
2018-11-26T03:17:19.257Z,15.30
2018-11-26T03:19:46.473Z,15.27
2018-11-26T03:22:13.705Z,14.07
2018-11-26T03:24:40.929Z,13.50
2018-11-26T03:27:08.069Z,15.37
2018-11-26T03:29:35.261Z,15.10
2018-11-26T03:32:02.451Z,14.80
2018-11-26T03:34:29.657Z,14.33
2018-11-26T03:36:56.872Z,15.33
2018-11-26T03:39:24.080Z,14.27
2018-11-26T03:41:51.332Z,14.30
2018-11-26T03:44:18.533Z,14.63
2018-11-26T03:46:45.733Z,15.27
2018-11-26T03:49:12.909Z,16.20
2018-11-26T03:51:40.097Z,16.37
2018-11-26T03:54:07.245Z,14.60
2018-11-26T03:56:34.426Z,14.70
2018-11-26T03:59:01.686Z,13.30
2018-11-26T04:01:28.879Z,14.33
2018-11-26T04:03:56.084Z,12.93
2018-11-26T04:06:23.426Z,15.13
2018-11-26T04:08:50.666Z,13.53
2018-11-26T04:11:17.814Z,14.33
2018-11-26T04:13:45.056Z,14.27
2018-11-26T04:16:12.278Z,14.40
2018-11-26T04:18:39.409Z,16.40
2018-11-26T04:21:06.593Z,14.37
2018-11-26T04:23:33.772Z,15.17
2018-11-26T04:26:01.006Z,14.20
2018-11-26T04:28:28.190Z,16.60
2018-11-26T04:30:55.378Z,15.13
2018-11-26T04:33:22.550Z,14.80
2018-11-26T04:35:49.690Z,15.13
2018-11-26T04:38:16.818Z,14.30
2018-11-26T04:40:44.005Z,13.73
2018-11-26T04:43:11.142Z,14.47
2018-11-26T04:45:38.261Z,14.63
2018-11-26T04:48:05.537Z,15.83
2018-11-26T04:50:32.760Z,14.83
2018-11-26T04:52:59.938Z,15.83
2018-11-26T04:55:27.146Z,15.90
2018-11-26T04:57:54.307Z,15.57
2018-11-26T05:00:21.491Z,15.90
2018-11-26T05:02:48.681Z,19.30
2018-11-26T05:05:15.834Z,19.20
2018-11-26T05:07:43.047Z,20.23
2018-11-26T05:10:11.438Z,16.07
2018-11-26T05:12:38.666Z,17.30
2018-11-26T05:15:07.614Z,17.30
2018-11-26T05:17:34.805Z,17.00
2018-11-26T05:20:02.144Z,19.70
2018-11-26T05:22:29.337Z,16.50
2018-11-26T05:24:56.457Z,16.70
2018-11-26T05:27:23.708Z,17.40
2018-11-26T05:29:50.906Z,15.40
2018-11-26T05:32:18.090Z,15.83
2018-11-26T05:34:45.915Z,16.47
2018-11-26T05:37:13.133Z,15.50
2018-11-26T05:39:40.356Z,16.00
2018-11-26T05:42:07.486Z,16.23
2018-11-26T05:44:34.677Z,17.67
2018-11-26T05:47:01.868Z,17.70
2018-11-26T05:49:29.132Z,17.23
2018-11-26T05:51:56.277Z,16.13
2018-11-26T05:54:23.545Z,16.43
2018-11-26T05:56:50.664Z,14.40
2018-11-26T05:59:17.892Z,13.97
2018-11-26T06:01:45.108Z,15.00
2018-11-26T06:04:12.300Z,15.17
2018-11-26T06:06:39.551Z,15.37
2018-11-26T06:09:09.005Z,15.30
2018-11-26T06:11:37.078Z,14.50
2018-11-26T06:14:04.345Z,16.53
2018-11-26T06:16:31.573Z,13.80
2018-11-26T06:18:58.721Z,16.07
2018-11-26T06:21:25.852Z,14.70
2018-11-26T06:23:53.072Z,13.27
2018-11-26T06:26:20.267Z,12.20
2018-11-26T06:28:47.473Z,13.43
2018-11-26T06:31:14.684Z,13.70
2018-11-26T06:33:41.808Z,14.53
2018-11-26T06:36:09.032Z,12.30
2018-11-26T06:38:36.214Z,11.90
2018-11-26T06:41:03.488Z,13.53
2018-11-26T06:43:30.689Z,14.93
2018-11-26T06:45:57.867Z,13.80
2018-11-26T06:48:25.025Z,13.27
2018-11-26T06:50:52.206Z,12.77
2018-11-26T06:53:19.464Z,14.60
2018-11-26T06:55:46.641Z,13.57
2018-11-26T06:58:13.785Z,12.80
2018-11-26T07:00:41.133Z,14.10
2018-11-26T07:03:08.237Z,14.30
2018-11-26T07:05:35.367Z,13.80
2018-11-26T07:08:02.540Z,12.90
2018-11-26T07:10:29.709Z,13.80
2018-11-26T07:12:56.861Z,13.90
2018-11-26T07:15:24.025Z,14.23
2018-11-26T07:17:51.164Z,13.03
2018-11-26T07:20:20.126Z,14.20
2018-11-26T07:22:47.292Z,12.93
2018-11-26T07:25:15.703Z,13.33
2018-11-26T07:27:43.913Z,12.40
2018-11-26T07:30:13.357Z,13.13
2018-11-26T07:32:40.966Z,13.30
2018-11-26T07:35:08.357Z,11.53
2018-11-26T07:37:35.527Z,14.07
2018-11-26T07:40:03.158Z,13.57
2018-11-26T07:42:30.266Z,12.60
2018-11-26T07:44:57.441Z,11.37
2018-11-26T07:47:24.574Z,13.63
2018-11-26T07:49:51.706Z,14.10
2018-11-26T07:52:18.878Z,12.50
2018-11-26T07:54:46.063Z,14.20
2018-11-26T07:57:13.220Z,12.77
2018-11-26T07:59:40.399Z,13.80
2018-11-26T08:02:07.642Z,13.40
2018-11-26T08:04:34.823Z,13.10
2018-11-26T08:07:01.994Z,14.87
2018-11-26T08:09:29.169Z,13.27
2018-11-26T08:11:56.263Z,13.17
2018-11-26T08:14:23.421Z,13.93
2018-11-26T08:16:50.601Z,16.23
2018-11-26T08:19:17.778Z,13.93
2018-11-26T08:21:45.238Z,13.27
2018-11-26T08:24:12.153Z,14.60
2018-11-26T08:26:39.328Z,13.40
2018-11-26T08:29:06.511Z,14.40
2018-11-26T08:31:33.674Z,14.63
2018-11-26T08:34:00.844Z,14.50
2018-11-26T08:36:38.512Z,15.80
2018-11-26T08:39:11.138Z,14.33
2018-11-26T08:41:42.869Z,14.73
2018-11-26T08:44:17.350Z,17.93
2018-11-26T08:46:46.305Z,15.50
2018-11-26T08:49:17.280Z,17.60
2018-11-26T08:51:44.446Z,17.80
2018-11-26T08:54:11.661Z,18.10
2018-11-26T08:56:38.821Z,18.07
2018-11-26T08:59:06.182Z,17.97
2018-11-26T09:01:39.093Z,17.23
2018-11-26T09:05:09.251Z,18.87
2018-11-26T09:07:36.450Z,19.13
2018-11-26T09:10:05.711Z,15.73
2018-11-26T09:12:32.926Z,19.07
2018-11-26T09:15:00.159Z,17.50
2018-11-26T09:17:28.037Z,19.43
2018-11-26T09:19:55.201Z,19.07
2018-11-26T09:22:22.404Z,17.47
2018-11-26T09:24:49.509Z,18.13
2018-11-26T09:27:16.677Z,18.93
2018-11-26T09:29:43.929Z,16.67
2018-11-26T09:32:11.110Z,18.07
2018-11-26T09:34:38.825Z,16.10
2018-11-26T09:37:06.058Z,18.63
2018-11-26T09:39:33.209Z,16.10
2018-11-26T09:42:00.310Z,18.20
2018-11-26T09:44:27.402Z,17.00
2018-11-26T09:46:54.604Z,19.03
2018-11-26T09:49:21.794Z,16.13
2018-11-26T09:51:49.055Z,16.43
2018-11-26T09:54:16.250Z,17.93
2018-11-26T09:56:43.385Z,17.30
2018-11-26T09:59:11.501Z,17.43
2018-11-26T10:01:39.544Z,18.80
2018-11-26T10:04:07.508Z,16.53
2018-11-26T10:06:35.607Z,17.27
2018-11-26T10:09:03.574Z,16.20
2018-11-26T10:11:33.148Z,18.70
2018-11-26T10:14:00.633Z,17.00
2018-11-26T10:16:28.641Z,17.80
2018-11-26T10:18:56.241Z,15.03
2018-11-26T10:21:24.394Z,14.90
2018-11-26T10:23:52.604Z,17.47
2018-11-26T10:26:20.469Z,13.93
2018-11-26T10:28:47.872Z,15.13
2018-11-26T10:31:15.708Z,15.20
2018-11-26T10:33:43.083Z,14.00
2018-11-26T10:36:11.706Z,14.23
2018-11-26T10:38:38.893Z,13.73
2018-11-26T10:41:06.595Z,12.90
2018-11-26T10:43:33.821Z,13.50
2018-11-26T10:46:01.007Z,13.23
2018-11-26T10:48:28.443Z,13.70
2018-11-26T10:50:55.653Z,12.77
2018-11-26T10:53:22.842Z,13.17
2018-11-26T10:55:52.682Z,12.20
2018-11-26T10:58:20.509Z,13.50
2018-11-26T11:00:53.437Z,12.80
2018-11-26T11:03:21.297Z,12.23
2018-11-26T11:05:48.665Z,13.40
2018-11-26T11:08:15.829Z,11.67
2018-11-26T11:10:45.056Z,12.83
2018-11-26T11:13:12.281Z,12.40
2018-11-26T11:15:40.232Z,13.60
2018-11-26T11:18:08.080Z,12.53
2018-11-26T11:20:36.899Z,13.13
2018-11-26T11:23:04.441Z,13.87
2018-11-26T11:25:31.667Z,13.77
2018-11-26T11:27:58.883Z,13.60
2018-11-26T11:30:28.177Z,12.93
2018-11-26T11:32:55.871Z,11.40
2018-11-26T11:35:23.355Z,12.37
2018-11-26T11:37:51.734Z,12.37
2018-11-26T11:40:26.150Z,12.50
2018-11-26T11:42:54.137Z,13.23
2018-11-26T11:45:23.198Z,13.23
2018-11-26T11:47:52.329Z,11.30
2018-11-26T11:50:21.281Z,13.80
2018-11-26T11:52:48.821Z,12.80
2018-11-26T11:55:17.142Z,12.67
2018-11-26T11:57:44.351Z,12.73
2018-11-26T12:00:14.875Z,14.90
2018-11-26T12:02:42.434Z,15.90
2018-11-26T12:05:11.105Z,14.47
2018-11-26T12:07:38.313Z,13.93
2018-11-26T12:10:07.573Z,15.37
2018-11-26T12:12:35.895Z,16.30
2018-11-26T12:15:10.731Z,15.23
2018-11-26T12:17:37.931Z,17.17
2018-11-26T12:20:07.647Z,19.00
2018-11-26T12:22:34.786Z,17.40
2018-11-26T12:25:02.664Z,18.67
2018-11-26T12:27:29.890Z,20.10
2018-11-26T12:29:57.075Z,18.13
2018-11-26T12:32:24.255Z,18.63
2018-11-26T12:34:51.366Z,19.90
2018-11-26T12:37:18.597Z,20.47
2018-11-26T12:39:45.746Z,21.73
2018-11-26T12:42:12.953Z,20.90
2018-11-26T12:44:50.359Z,20.93
2018-11-26T12:47:17.544Z,19.27
2018-11-26T12:49:44.711Z,20.40
2018-11-26T12:52:11.859Z,23.53
2018-11-26T12:54:39.001Z,22.90
2018-11-26T12:57:06.335Z,23.50
2018-11-26T12:59:35.264Z,21.70
2018-11-26T13:02:02.435Z,24.33
2018-11-26T13:04:29.664Z,22.00
2018-11-26T13:06:57.188Z,22.70
2018-11-26T13:09:24.408Z,21.70
2018-11-26T13:11:51.624Z,23.50
2018-11-26T13:14:18.810Z,21.50
2018-11-26T13:16:47.383Z,22.50
2018-11-26T13:19:15.814Z,20.70
2018-11-26T13:21:42.935Z,21.17
2018-11-26T13:24:10.090Z,21.47
2018-11-26T13:26:37.761Z,22.17
2018-11-26T13:29:09.153Z,21.73
2018-11-26T13:31:37.429Z,21.43
2018-11-26T13:34:06.338Z,20.77
2018-11-26T13:36:33.598Z,23.00
2018-11-26T13:39:00.987Z,20.70
2018-11-26T13:41:29.016Z,19.67
2018-11-26T13:43:57.412Z,21.27
2018-11-26T13:46:24.579Z,21.80
2018-11-26T13:48:51.779Z,21.17
2018-11-26T13:51:20.151Z,20.60
2018-11-26T13:53:48.307Z,21.57
2018-11-26T13:56:15.463Z,20.73
2018-11-26T13:58:42.646Z,20.23
2018-11-26T14:01:13.838Z,21.53
2018-11-26T14:03:41.007Z,19.07
2018-11-26T14:06:10.134Z,21.90
2018-11-26T14:08:40.219Z,20.10
2018-11-26T14:11:07.510Z,21.80
2018-11-26T14:13:34.718Z,19.50
2018-11-26T14:16:01.928Z,20.87
2018-11-26T14:18:30.387Z,22.20
2018-11-26T14:20:58.755Z,22.90
2018-11-26T14:23:25.965Z,19.63
2018-11-26T14:25:53.147Z,20.10
2018-11-26T14:28:21.098Z,17.73
2018-11-26T14:30:49.139Z,22.30
2018-11-26T14:33:16.323Z,18.47
2018-11-26T14:35:43.598Z,18.70
2018-11-26T14:38:10.859Z,23.77
2018-11-26T14:40:40.857Z,21.40
2018-11-26T14:43:08.020Z,22.57
2018-11-26T14:45:35.214Z,22.27
2018-11-26T14:48:02.394Z,19.00
2018-11-26T14:50:29.641Z,14.60
2018-11-26T14:52:56.850Z,21.23
2018-11-26T14:55:30.049Z,20.13
2018-11-26T14:57:57.320Z,22.43
2018-11-26T15:00:24.492Z,20.50
2018-11-26T15:02:51.726Z,20.07
2018-11-26T15:05:18.921Z,19.27
2018-11-26T15:07:46.153Z,20.43
2018-11-26T15:10:17.416Z,19.27
2018-11-26T15:12:44.969Z,20.60
2018-11-26T15:15:13.670Z,18.80
2018-11-26T15:17:41.597Z,21.87
2018-11-26T15:20:11.415Z,22.37
2018-11-26T15:22:38.627Z,18.60
2018-11-26T15:25:07.952Z,20.80
2018-11-26T15:27:35.153Z,22.73
2018-11-26T15:30:06.326Z,19.67
2018-11-26T15:32:33.618Z,19.43
2018-11-26T15:35:00.873Z,22.03
2018-11-26T15:37:28.080Z,20.70
2018-11-26T15:39:55.730Z,18.43
2018-11-26T15:42:22.938Z,20.03
2018-11-26T15:44:50.199Z,20.70
2018-11-26T15:47:17.441Z,20.63
2018-11-26T15:49:44.751Z,18.93
2018-11-26T15:52:11.946Z,18.60
2018-11-26T15:54:39.184Z,20.27
2018-11-26T15:57:06.463Z,21.53
2018-11-26T15:59:33.635Z,19.60
2018-11-26T16:02:00.852Z,20.93
2018-11-26T16:04:28.019Z,19.60
2018-11-26T16:06:55.773Z,21.57
2018-11-26T16:09:22.945Z,19.50
2018-11-26T16:11:50.204Z,20.57
2018-11-26T16:14:17.431Z,21.50
2018-11-26T16:16:44.611Z,20.90
2018-11-26T16:19:11.799Z,20.03
2018-11-26T16:21:39.029Z,21.43
2018-11-26T16:24:06.351Z,21.87
2018-11-26T16:26:33.539Z,21.33
2018-11-26T16:29:00.728Z,20.60
2018-11-26T16:31:27.969Z,22.10
2018-11-26T16:33:55.488Z,21.37
2018-11-26T16:36:22.686Z,23.67
2018-11-26T16:38:52.709Z,21.30
2018-11-26T16:41:20.291Z,21.80
2018-11-26T16:43:48.345Z,20.07
2018-11-26T16:46:15.925Z,20.40
2018-11-26T16:48:43.604Z,18.53
2018-11-26T16:51:11.143Z,23.70
2018-11-26T16:53:38.837Z,19.30
2018-11-26T16:56:06.543Z,21.50
2018-11-26T16:58:34.212Z,22.30
2018-11-26T17:01:02.561Z,19.70
2018-11-26T17:03:33.039Z,19.90
2018-11-26T17:06:01.605Z,18.93
2018-11-26T17:08:29.976Z,20.17
2018-11-26T17:10:58.656Z,21.03
2018-11-26T17:13:29.739Z,21.37
2018-11-26T17:15:58.541Z,20.90
2018-11-26T17:18:26.104Z,20.47
2018-11-26T17:20:56.304Z,20.20
2018-11-26T17:23:23.747Z,18.43
2018-11-26T17:25:51.576Z,21.30
2018-11-26T17:28:19.421Z,19.90
2018-11-26T17:30:48.059Z,21.07
2018-11-26T17:33:15.387Z,22.37
2018-11-26T17:35:42.970Z,19.43
2018-11-26T17:38:10.173Z,18.40
2018-11-26T17:40:41.806Z,19.50
2018-11-26T17:43:11.773Z,19.60
2018-11-26T17:45:39.744Z,18.63
2018-11-26T17:48:07.597Z,17.40
2018-11-26T17:50:37.739Z,19.63
2018-11-26T17:53:10.380Z,20.00
2018-11-26T17:58:30.379Z,18.10
2018-11-26T18:01:00.532Z,22.57
2018-11-26T18:03:28.226Z,17.30
2018-11-26T18:05:56.040Z,20.20
2018-11-26T18:08:24.177Z,19.87
2018-11-26T18:10:52.032Z,20.13
2018-11-26T18:13:19.507Z,22.40
2018-11-26T18:15:47.031Z,20.50
2018-11-26T18:18:17.424Z,12.77
2018-11-26T18:20:45.965Z,20.40
2018-11-26T18:23:13.409Z,17.90
2018-11-26T18:25:42.013Z,17.40
2018-11-26T18:28:12.043Z,20.77
2018-11-26T18:30:41.769Z,20.87
2018-11-26T18:33:09.231Z,18.47
2018-11-26T18:35:37.085Z,21.63
2018-11-26T18:38:05.085Z,18.20
2018-11-26T18:40:32.383Z,20.87
2018-11-26T18:42:59.688Z,18.60
2018-11-26T18:45:27.090Z,18.70
2018-11-26T18:47:54.463Z,17.50
2018-11-26T18:50:22.174Z,18.00
2018-11-26T18:52:50.095Z,20.87
2018-11-26T18:55:17.573Z,19.77
2018-11-26T18:57:45.185Z,18.90
2018-11-26T19:00:31.055Z,19.13
2018-11-26T19:02:58.653Z,18.33
2018-11-26T19:05:25.961Z,19.13
2018-11-26T19:07:53.209Z,17.47
2018-11-26T19:10:24.149Z,18.07
2018-11-26T19:12:56.933Z,16.37
2018-11-26T19:15:30.682Z,18.17
2018-11-26T19:18:02.290Z,19.50
2018-11-26T19:20:29.587Z,16.87
2018-11-26T19:22:56.860Z,21.23
2018-11-26T19:25:24.534Z,18.40
2018-11-26T19:27:51.827Z,19.40
2018-11-26T19:30:23.086Z,21.70
2018-11-26T19:32:46.425Z,19.20
2018-11-26T19:35:14.649Z,21.60
2018-11-26T19:37:41.932Z,16.97
2018-11-26T19:40:10.686Z,18.33
2018-11-26T19:42:38.154Z,20.90
2018-11-26T19:45:11.510Z,23.00
2018-11-26T19:47:41.379Z,21.90
2018-11-26T19:50:11.836Z,19.40
2018-11-26T19:52:39.289Z,21.23
2018-11-26T19:55:10.152Z,19.90
2018-11-26T19:57:37.508Z,20.50
2018-11-26T20:00:10.064Z,18.27
2018-11-26T20:02:37.276Z,19.13
2018-11-26T20:05:08.669Z,19.53
2018-11-26T20:07:35.894Z,20.40
2018-11-26T20:10:03.259Z,20.93
2018-11-26T20:12:30.524Z,17.37
2018-11-26T20:14:57.729Z,16.90
2018-11-26T20:17:26.302Z,19.67
2018-11-26T20:19:53.594Z,13.90
2018-11-26T20:22:20.789Z,20.47
2018-11-26T20:24:48.248Z,16.47
2018-11-26T20:27:15.448Z,14.90
2018-11-26T20:29:42.802Z,16.13
2018-11-26T20:32:10.018Z,17.67
2018-11-26T20:34:37.247Z,16.30
2018-11-26T20:37:05.179Z,15.13
2018-11-26T20:39:32.439Z,14.80
2018-11-26T20:41:59.630Z,15.70
2018-11-26T20:44:26.817Z,16.27
2018-11-26T20:46:54.107Z,17.47
2018-11-26T20:49:21.362Z,16.47
2018-11-26T20:51:48.811Z,17.03
2018-11-26T20:54:16.030Z,17.20
2018-11-26T20:56:43.287Z,14.77
2018-11-26T20:59:10.534Z,17.07
2018-11-26T21:01:37.793Z,15.20
2018-11-26T21:04:05.696Z,15.50
2018-11-26T21:06:32.927Z,16.00
2018-11-26T21:09:00.134Z,18.00
2018-11-26T21:11:27.399Z,15.87
2018-11-26T21:13:54.671Z,16.93
2018-11-26T21:16:21.982Z,21.00
2018-11-26T21:18:49.166Z,18.23
2018-11-26T21:21:16.377Z,17.33
2018-11-26T21:23:43.707Z,18.13
2018-11-26T21:26:10.882Z,18.80
2018-11-26T21:28:38.112Z,17.50
2018-11-26T21:44:05.007Z,17.30
2018-11-26T21:46:32.200Z,19.60
2018-11-26T21:49:00.294Z,20.50
2018-11-26T21:51:27.487Z,21.27
2018-11-26T21:53:54.745Z,23.03
2018-11-26T21:56:22.064Z,20.90
2018-11-26T21:58:49.249Z,19.57
2018-11-26T22:01:16.499Z,22.03
2018-11-26T22:03:43.738Z,20.03
2018-11-26T22:06:10.998Z,21.33
2018-11-26T22:08:38.238Z,21.23
2018-11-26T22:11:05.572Z,21.30
2018-11-26T22:13:32.958Z,20.53
2018-11-26T22:16:00.244Z,23.53
2018-11-26T22:18:27.452Z,21.00
2018-11-26T22:20:54.663Z,23.00
2018-11-26T22:23:21.942Z,23.07
2018-11-26T22:25:49.221Z,20.17
2018-11-26T22:28:16.422Z,22.40
2018-11-26T22:30:43.643Z,19.80
2018-11-26T22:33:10.860Z,23.23
2018-11-26T22:35:38.109Z,22.33
2018-11-26T22:38:05.635Z,20.63
2018-11-26T22:40:32.821Z,22.97
2018-11-26T22:43:00.052Z,21.87
2018-11-26T22:45:29.975Z,23.40
2018-11-26T22:48:02.286Z,21.57
2018-11-26T22:50:29.526Z,21.17
2018-11-26T22:52:56.663Z,26.03
2018-11-26T22:55:23.863Z,22.50
2018-11-26T22:57:51.050Z,21.97
2018-11-26T23:00:30.259Z,23.87
2018-11-26T23:02:58.484Z,24.53
2018-11-26T23:05:25.794Z,23.73
2018-11-26T23:07:53.013Z,23.07
2018-11-26T23:10:20.238Z,21.97
2018-11-26T23:12:47.476Z,25.20
2018-11-26T23:15:15.304Z,22.07
2018-11-26T23:17:43.308Z,24.50
2018-11-26T23:20:14.410Z,22.70
2018-11-26T23:22:41.551Z,22.90
2018-11-26T23:25:16.455Z,23.70
2018-11-26T23:27:43.627Z,23.10
2018-11-26T23:30:17.903Z,23.83
2018-11-26T23:32:46.095Z,24.23
2018-11-26T23:35:13.289Z,23.70
2018-11-26T23:37:40.537Z,22.83
2018-11-26T23:40:09.919Z,23.40
2018-11-26T23:42:37.109Z,22.70
2018-11-26T23:45:07.311Z,24.53
2018-11-26T23:47:34.511Z,23.60
2018-11-26T23:50:01.686Z,23.10
2018-11-26T23:52:28.830Z,23.20
2018-11-26T23:54:56.045Z,25.20
2018-11-26T23:57:23.223Z,21.57
2018-11-26T23:59:50.405Z,21.80
